sensor_id;sensor_type;location;lat;lon;timestamp;P1;durP1;ratioP1;P2;durP2;ratioP2
4106;SDS011;21906;50.812;7.132;2023-06-04T00:00:30;2.07;;;1.87;;
4106;SDS011;21906;50.812;7.132;2023-06-04T00:02:56;2.70;;;1.43;;
4106;SDS011;21906;50.812;7.132;2023-06-04T00:05:21;3.10;;;1.90;;
4106;SDS011;21906;50.812;7.132;2023-06-04T00:07:50;1.87;;;1.77;;
4106;SDS011;21906;50.812;7.132;2023-06-04T00:10:18;1.80;;;1.70;;
4106;SDS011;21906;50.812;7.132;2023-06-04T00:12:44;1.90;;;1.77;;
4106;SDS011;21906;50.812;7.132;2023-06-04T00:15:10;1.83;;;1.67;;
4106;SDS011;21906;50.812;7.132;2023-06-04T00:17:36;2.30;;;2.10;;
4106;SDS011;21906;50.812;7.132;2023-06-04T00:20:02;1.83;;;1.73;;
4106;SDS011;21906;50.812;7.132;2023-06-04T00:22:28;3.60;;;1.80;;
4106;SDS011;21906;50.812;7.132;2023-06-04T00:24:53;2.20;;;2.00;;
4106;SDS011;21906;50.812;7.132;2023-06-04T00:27:19;2.30;;;2.10;;
4106;SDS011;21906;50.812;7.132;2023-06-04T00:29:45;1.97;;;1.87;;
4106;SDS011;21906;50.812;7.132;2023-06-04T00:32:10;2.10;;;1.90;;
4106;SDS011;21906;50.812;7.132;2023-06-04T00:34:36;2.50;;;1.87;;
4106;SDS011;21906;50.812;7.132;2023-06-04T00:37:01;1.97;;;1.83;;
4106;SDS011;21906;50.812;7.132;2023-06-04T00:39:27;2.00;;;1.90;;
4106;SDS011;21906;50.812;7.132;2023-06-04T00:41:54;1.90;;;1.80;;
4106;SDS011;21906;50.812;7.132;2023-06-04T00:44:20;3.00;;;2.00;;
4106;SDS011;21906;50.812;7.132;2023-06-04T00:46:47;2.55;;;2.25;;
4106;SDS011;21906;50.812;7.132;2023-06-04T00:49:14;2.80;;;2.07;;
4106;SDS011;21906;50.812;7.132;2023-06-04T00:51:40;2.20;;;2.00;;
4106;SDS011;21906;50.812;7.132;2023-06-04T00:54:06;3.13;;;1.87;;
4106;SDS011;21906;50.812;7.132;2023-06-04T00:56:34;1.90;;;1.80;;
4106;SDS011;21906;50.812;7.132;2023-06-04T00:59:02;2.00;;;1.90;;
4106;SDS011;21906;50.812;7.132;2023-06-04T01:01:31;2.57;;;1.77;;
4106;SDS011;21906;50.812;7.132;2023-06-04T01:04:02;2.27;;;2.17;;
4106;SDS011;21906;50.812;7.132;2023-06-04T01:09:08;1.93;;;1.83;;
4106;SDS011;21906;50.812;7.132;2023-06-04T01:11:36;2.00;;;1.90;;
4106;SDS011;21906;50.812;7.132;2023-06-04T01:14:04;2.03;;;1.83;;
4106;SDS011;21906;50.812;7.132;2023-06-04T01:16:46;2.30;;;2.10;;
4106;SDS011;21906;50.812;7.132;2023-06-04T01:27:58;3.90;;;2.30;;
4106;SDS011;21906;50.812;7.132;2023-06-04T01:30:32;2.20;;;2.10;;
4106;SDS011;21906;50.812;7.132;2023-06-04T01:33:00;2.63;;;2.00;;
4106;SDS011;21906;50.812;7.132;2023-06-04T01:35:27;2.30;;;2.17;;
4106;SDS011;21906;50.812;7.132;2023-06-04T01:37:54;2.50;;;2.30;;
4106;SDS011;21906;50.812;7.132;2023-06-04T01:43:03;2.90;;;2.70;;
4106;SDS011;21906;50.812;7.132;2023-06-04T01:45:29;2.90;;;2.40;;
4106;SDS011;21906;50.812;7.132;2023-06-04T01:47:55;2.53;;;2.33;;
4106;SDS011;21906;50.812;7.132;2023-06-04T01:50:21;2.43;;;2.30;;
4106;SDS011;21906;50.812;7.132;2023-06-04T01:52:48;2.80;;;2.53;;
4106;SDS011;21906;50.812;7.132;2023-06-04T01:55:15;3.10;;;2.43;;
4106;SDS011;21906;50.812;7.132;2023-06-04T01:57:42;2.70;;;2.50;;
4106;SDS011;21906;50.812;7.132;2023-06-04T02:00:09;2.37;;;2.17;;
4106;SDS011;21906;50.812;7.132;2023-06-04T02:02:37;2.87;;;2.30;;
4106;SDS011;21906;50.812;7.132;2023-06-04T02:05:03;2.90;;;2.60;;
4106;SDS011;21906;50.812;7.132;2023-06-04T02:07:32;2.93;;;2.50;;
4106;SDS011;21906;50.812;7.132;2023-06-04T02:09:59;3.08;;;2.30;;
4106;SDS011;21906;50.812;7.132;2023-06-04T02:12:25;2.93;;;2.60;;
4106;SDS011;21906;50.812;7.132;2023-06-04T02:14:51;3.20;;;2.97;;
4106;SDS011;21906;50.812;7.132;2023-06-04T02:17:16;3.17;;;2.90;;
4106;SDS011;21906;50.812;7.132;2023-06-04T02:19:42;3.20;;;2.77;;
4106;SDS011;21906;50.812;7.132;2023-06-04T02:22:19;2.83;;;2.63;;
4106;SDS011;21906;50.812;7.132;2023-06-04T02:24:45;3.22;;;2.92;;
4106;SDS011;21906;50.812;7.132;2023-06-04T02:27:13;2.97;;;2.77;;
4106;SDS011;21906;50.812;7.132;2023-06-04T02:29:39;3.28;;;2.60;;
4106;SDS011;21906;50.812;7.132;2023-06-04T02:32:05;2.95;;;2.75;;
4106;SDS011;21906;50.812;7.132;2023-06-04T02:34:31;3.17;;;2.87;;
4106;SDS011;21906;50.812;7.132;2023-06-04T02:36:59;3.05;;;2.85;;
4106;SDS011;21906;50.812;7.132;2023-06-04T02:39:25;4.30;;;3.03;;
4106;SDS011;21906;50.812;7.132;2023-06-04T02:41:50;4.00;;;3.27;;
4106;SDS011;21906;50.812;7.132;2023-06-04T02:44:16;3.13;;;2.93;;
4106;SDS011;21906;50.812;7.132;2023-06-04T02:46:42;3.03;;;2.77;;
4106;SDS011;21906;50.812;7.132;2023-06-04T02:49:09;3.00;;;2.53;;
4106;SDS011;21906;50.812;7.132;2023-06-04T02:51:38;9.23;;;3.17;;
4106;SDS011;21906;50.812;7.132;2023-06-04T02:54:04;3.25;;;3.05;;
4106;SDS011;21906;50.812;7.132;2023-06-04T02:56:30;2.70;;;2.50;;
4106;SDS011;21906;50.812;7.132;2023-06-04T02:58:56;3.10;;;2.80;;
4106;SDS011;21906;50.812;7.132;2023-06-04T03:01:22;3.60;;;2.90;;
4106;SDS011;21906;50.812;7.132;2023-06-04T03:03:49;2.60;;;2.40;;
4106;SDS011;21906;50.812;7.132;2023-06-04T03:06:16;2.40;;;2.20;;
4106;SDS011;21906;50.812;7.132;2023-06-04T03:08:45;3.00;;;2.80;;
4106;SDS011;21906;50.812;7.132;2023-06-04T03:11:10;3.97;;;3.03;;
4106;SDS011;21906;50.812;7.132;2023-06-04T03:13:37;2.73;;;2.53;;
4106;SDS011;21906;50.812;7.132;2023-06-04T03:16:03;2.67;;;2.47;;
4106;SDS011;21906;50.812;7.132;2023-06-04T03:18:34;2.67;;;2.47;;
4106;SDS011;21906;50.812;7.132;2023-06-04T03:21:04;2.50;;;2.30;;
4106;SDS011;21906;50.812;7.132;2023-06-04T03:23:31;3.20;;;2.10;;
4106;SDS011;21906;50.812;7.132;2023-06-04T03:25:57;2.70;;;2.50;;
4106;SDS011;21906;50.812;7.132;2023-06-04T03:28:23;2.47;;;2.27;;
4106;SDS011;21906;50.812;7.132;2023-06-04T03:30:48;2.50;;;2.30;;
4106;SDS011;21906;50.812;7.132;2023-06-04T03:33:14;2.87;;;2.67;;
4106;SDS011;21906;50.812;7.132;2023-06-04T03:35:40;2.77;;;2.57;;
4106;SDS011;21906;50.812;7.132;2023-06-04T03:38:07;4.00;;;2.67;;
4106;SDS011;21906;50.812;7.132;2023-06-04T03:40:32;2.30;;;2.10;;
4106;SDS011;21906;50.812;7.132;2023-06-04T03:42:58;2.90;;;2.60;;
4106;SDS011;21906;50.812;7.132;2023-06-04T03:45:25;2.40;;;2.20;;
4106;SDS011;21906;50.812;7.132;2023-06-04T03:47:51;2.70;;;2.40;;
4106;SDS011;21906;50.812;7.132;2023-06-04T03:50:17;2.40;;;2.20;;
4106;SDS011;21906;50.812;7.132;2023-06-04T03:52:43;2.33;;;2.13;;
4106;SDS011;21906;50.812;7.132;2023-06-04T03:55:09;2.30;;;2.10;;
4106;SDS011;21906;50.812;7.132;2023-06-04T03:57:36;2.67;;;2.40;;
4106;SDS011;21906;50.812;7.132;2023-06-04T04:00:03;2.40;;;2.20;;
4106;SDS011;21906;50.812;7.132;2023-06-04T04:02:31;2.63;;;2.38;;
4106;SDS011;21906;50.812;7.132;2023-06-04T04:04:56;2.37;;;2.17;;
4106;SDS011;21906;50.812;7.132;2023-06-04T04:07:22;2.20;;;2.10;;
4106;SDS011;21906;50.812;7.132;2023-06-04T04:09:49;3.40;;;2.03;;
4106;SDS011;21906;50.812;7.132;2023-06-04T04:12:15;2.57;;;2.37;;
4106;SDS011;21906;50.812;7.132;2023-06-04T04:14:42;2.67;;;2.20;;
4106;SDS011;21906;50.812;7.132;2023-06-04T04:17:07;2.50;;;2.30;;
4106;SDS011;21906;50.812;7.132;2023-06-04T04:19:33;5.03;;;2.30;;
4106;SDS011;21906;50.812;7.132;2023-06-04T04:21:59;2.13;;;2.03;;
4106;SDS011;21906;50.812;7.132;2023-06-04T04:24:25;2.07;;;1.80;;
4106;SDS011;21906;50.812;7.132;2023-06-04T04:26:54;2.77;;;2.10;;
4106;SDS011;21906;50.812;7.132;2023-06-04T04:29:22;2.50;;;2.30;;
4106;SDS011;21906;50.812;7.132;2023-06-04T04:31:49;2.10;;;2.00;;
4106;SDS011;21906;50.812;7.132;2023-06-04T04:34:15;3.57;;;2.17;;
4106;SDS011;21906;50.812;7.132;2023-06-04T04:36:42;2.57;;;2.37;;
4106;SDS011;21906;50.812;7.132;2023-06-04T04:39:17;3.00;;;2.22;;
4106;SDS011;21906;50.812;7.132;2023-06-04T04:41:44;2.40;;;2.20;;
4106;SDS011;21906;50.812;7.132;2023-06-04T04:44:10;2.67;;;2.47;;
4106;SDS011;21906;50.812;7.132;2023-06-04T04:46:35;4.60;;;2.10;;
4106;SDS011;21906;50.812;7.132;2023-06-04T04:49:01;6.37;;;2.23;;
4106;SDS011;21906;50.812;7.132;2023-06-04T04:51:27;2.77;;;2.57;;
4106;SDS011;21906;50.812;7.132;2023-06-04T04:53:53;2.20;;;2.10;;
4106;SDS011;21906;50.812;7.132;2023-06-04T04:56:19;2.60;;;2.40;;
4106;SDS011;21906;50.812;7.132;2023-06-04T04:58:47;2.47;;;1.97;;
4106;SDS011;21906;50.812;7.132;2023-06-04T05:01:13;2.63;;;2.30;;
4106;SDS011;21906;50.812;7.132;2023-06-04T05:03:38;2.60;;;2.40;;
4106;SDS011;21906;50.812;7.132;2023-06-04T05:06:04;4.90;;;2.40;;
4106;SDS011;21906;50.812;7.132;2023-06-04T05:08:30;2.67;;;2.17;;
4106;SDS011;21906;50.812;7.132;2023-06-04T05:10:56;2.20;;;2.00;;
4106;SDS011;21906;50.812;7.132;2023-06-04T05:13:21;2.33;;;2.23;;
4106;SDS011;21906;50.812;7.132;2023-06-04T05:15:47;2.58;;;2.38;;
4106;SDS011;21906;50.812;7.132;2023-06-04T05:18:13;2.57;;;2.27;;
4106;SDS011;21906;50.812;7.132;2023-06-04T05:20:41;2.80;;;2.10;;
4106;SDS011;21906;50.812;7.132;2023-06-04T05:23:07;2.97;;;2.77;;
4106;SDS011;21906;50.812;7.132;2023-06-04T05:25:33;2.23;;;2.13;;
4106;SDS011;21906;50.812;7.132;2023-06-04T05:27:59;2.03;;;1.83;;
4106;SDS011;21906;50.812;7.132;2023-06-04T05:30:25;2.60;;;2.40;;
4106;SDS011;21906;50.812;7.132;2023-06-04T05:32:51;2.40;;;2.30;;
4106;SDS011;21906;50.812;7.132;2023-06-04T05:35:18;5.57;;;2.50;;
4106;SDS011;21906;50.812;7.132;2023-06-04T05:37:44;2.73;;;2.53;;
4106;SDS011;21906;50.812;7.132;2023-06-04T05:40:10;2.78;;;2.58;;
4106;SDS011;21906;50.812;7.132;2023-06-04T05:42:37;2.53;;;2.33;;
4106;SDS011;21906;50.812;7.132;2023-06-04T05:45:03;3.13;;;2.93;;
4106;SDS011;21906;50.812;7.132;2023-06-04T05:47:30;2.63;;;2.43;;
4106;SDS011;21906;50.812;7.132;2023-06-04T05:49:56;2.80;;;2.60;;
4106;SDS011;21906;50.812;7.132;2023-06-04T05:52:22;4.07;;;3.03;;
4106;SDS011;21906;50.812;7.132;2023-06-04T05:54:48;3.23;;;2.50;;
4106;SDS011;21906;50.812;7.132;2023-06-04T05:57:14;2.80;;;2.60;;
4106;SDS011;21906;50.812;7.132;2023-06-04T05:59:39;3.07;;;2.77;;
4106;SDS011;21906;50.812;7.132;2023-06-04T06:02:05;5.00;;;2.57;;
4106;SDS011;21906;50.812;7.132;2023-06-04T06:04:31;4.50;;;2.50;;
4106;SDS011;21906;50.812;7.132;2023-06-04T06:06:57;2.27;;;2.07;;
4106;SDS011;21906;50.812;7.132;2023-06-04T06:09:22;3.53;;;2.40;;
4106;SDS011;21906;50.812;7.132;2023-06-04T06:11:48;3.20;;;2.70;;
4106;SDS011;21906;50.812;7.132;2023-06-04T06:14:14;2.60;;;2.40;;
4106;SDS011;21906;50.812;7.132;2023-06-04T06:16:40;2.87;;;2.50;;
4106;SDS011;21906;50.812;7.132;2023-06-04T06:19:05;3.13;;;2.83;;
4106;SDS011;21906;50.812;7.132;2023-06-04T06:21:31;4.37;;;2.80;;
4106;SDS011;21906;50.812;7.132;2023-06-04T06:23:57;3.07;;;2.50;;
4106;SDS011;21906;50.812;7.132;2023-06-04T06:26:22;2.90;;;2.70;;
4106;SDS011;21906;50.812;7.132;2023-06-04T06:28:50;4.70;;;2.80;;
4106;SDS011;21906;50.812;7.132;2023-06-04T06:31:15;2.63;;;2.43;;
4106;SDS011;21906;50.812;7.132;2023-06-04T06:33:41;2.47;;;2.27;;
4106;SDS011;21906;50.812;7.132;2023-06-04T06:36:07;2.33;;;2.13;;
4106;SDS011;21906;50.812;7.132;2023-06-04T06:38:37;3.43;;;2.37;;
4106;SDS011;21906;50.812;7.132;2023-06-04T06:41:02;2.30;;;2.10;;
4106;SDS011;21906;50.812;7.132;2023-06-04T06:43:28;2.70;;;2.50;;
4106;SDS011;21906;50.812;7.132;2023-06-04T06:45:54;2.53;;;2.33;;
4106;SDS011;21906;50.812;7.132;2023-06-04T06:48:20;2.97;;;2.73;;
4106;SDS011;21906;50.812;7.132;2023-06-04T06:50:45;4.57;;;2.30;;
4106;SDS011;21906;50.812;7.132;2023-06-04T06:53:11;2.93;;;2.73;;
4106;SDS011;21906;50.812;7.132;2023-06-04T06:55:37;3.77;;;3.00;;
4106;SDS011;21906;50.812;7.132;2023-06-04T06:58:02;2.87;;;2.67;;
4106;SDS011;21906;50.812;7.132;2023-06-04T07:00:28;3.20;;;2.83;;
4106;SDS011;21906;50.812;7.132;2023-06-04T07:02:53;3.20;;;2.90;;
4106;SDS011;21906;50.812;7.132;2023-06-04T07:05:19;2.60;;;2.40;;
4106;SDS011;21906;50.812;7.132;2023-06-04T07:07:45;4.00;;;3.20;;
4106;SDS011;21906;50.812;7.132;2023-06-04T07:10:11;3.30;;;3.00;;
4106;SDS011;21906;50.812;7.132;2023-06-04T07:12:38;2.77;;;2.57;;
4106;SDS011;21906;50.812;7.132;2023-06-04T07:15:04;3.70;;;3.40;;
4106;SDS011;21906;50.812;7.132;2023-06-04T07:17:31;3.20;;;3.00;;
4106;SDS011;21906;50.812;7.132;2023-06-04T07:19:57;3.63;;;2.90;;
4106;SDS011;21906;50.812;7.132;2023-06-04T07:22:23;2.77;;;2.57;;
4106;SDS011;21906;50.812;7.132;2023-06-04T07:24:48;3.93;;;2.63;;
4106;SDS011;21906;50.812;7.132;2023-06-04T07:27:15;3.75;;;2.80;;
4106;SDS011;21906;50.812;7.132;2023-06-04T07:29:42;2.90;;;2.70;;
4106;SDS011;21906;50.812;7.132;2023-06-04T07:32:09;2.73;;;2.53;;
4106;SDS011;21906;50.812;7.132;2023-06-04T07:34:35;2.73;;;2.47;;
4106;SDS011;21906;50.812;7.132;2023-06-04T07:37:02;2.87;;;2.67;;
4106;SDS011;21906;50.812;7.132;2023-06-04T07:39:28;2.73;;;2.50;;
4106;SDS011;21906;50.812;7.132;2023-06-04T07:41:53;3.10;;;2.23;;
4106;SDS011;21906;50.812;7.132;2023-06-04T07:44:19;2.60;;;2.40;;
4106;SDS011;21906;50.812;7.132;2023-06-04T07:46:45;2.60;;;2.40;;
4106;SDS011;21906;50.812;7.132;2023-06-04T07:49:10;3.00;;;2.27;;
4106;SDS011;21906;50.812;7.132;2023-06-04T07:51:36;3.50;;;2.63;;
4106;SDS011;21906;50.812;7.132;2023-06-04T07:54:02;3.90;;;2.30;;
4106;SDS011;21906;50.812;7.132;2023-06-04T07:56:28;2.87;;;2.67;;
4106;SDS011;21906;50.812;7.132;2023-06-04T07:58:53;2.63;;;2.43;;
4106;SDS011;21906;50.812;7.132;2023-06-04T08:01:20;2.47;;;2.00;;
4106;SDS011;21906;50.812;7.132;2023-06-04T08:03:46;2.70;;;2.50;;
4106;SDS011;21906;50.812;7.132;2023-06-04T08:06:12;3.00;;;2.70;;
4106;SDS011;21906;50.812;7.132;2023-06-04T08:08:41;2.93;;;2.70;;
4106;SDS011;21906;50.812;7.132;2023-06-04T08:11:11;2.80;;;2.60;;
4106;SDS011;21906;50.812;7.132;2023-06-04T08:13:37;2.50;;;2.30;;
4106;SDS011;21906;50.812;7.132;2023-06-04T08:16:04;2.40;;;2.30;;
4106;SDS011;21906;50.812;7.132;2023-06-04T08:18:30;2.87;;;2.67;;
4106;SDS011;21906;50.812;7.132;2023-06-04T08:20:55;2.77;;;2.57;;
4106;SDS011;21906;50.812;7.132;2023-06-04T08:23:21;2.67;;;2.47;;
4106;SDS011;21906;50.812;7.132;2023-06-04T08:25:47;2.50;;;2.30;;
4106;SDS011;21906;50.812;7.132;2023-06-04T08:28:15;2.77;;;2.50;;
4106;SDS011;21906;50.812;7.132;2023-06-04T08:30:44;2.57;;;2.37;;
4106;SDS011;21906;50.812;7.132;2023-06-04T08:33:10;2.37;;;2.27;;
4106;SDS011;21906;50.812;7.132;2023-06-04T08:35:36;2.60;;;2.50;;
4106;SDS011;21906;50.812;7.132;2023-06-04T08:38:02;3.47;;;2.27;;
4106;SDS011;21906;50.812;7.132;2023-06-04T08:40:27;3.70;;;2.40;;
4106;SDS011;21906;50.812;7.132;2023-06-04T08:42:55;2.60;;;2.40;;
4106;SDS011;21906;50.812;7.132;2023-06-04T08:45:24;2.23;;;2.03;;
4106;SDS011;21906;50.812;7.132;2023-06-04T08:47:50;2.57;;;2.37;;
4106;SDS011;21906;50.812;7.132;2023-06-04T08:50:17;2.73;;;2.53;;
4106;SDS011;21906;50.812;7.132;2023-06-04T08:52:44;2.40;;;2.30;;
4106;SDS011;21906;50.812;7.132;2023-06-04T08:55:11;2.63;;;2.43;;
4106;SDS011;21906;50.812;7.132;2023-06-04T08:57:39;2.63;;;2.43;;
4106;SDS011;21906;50.812;7.132;2023-06-04T09:00:05;2.30;;;2.10;;
4106;SDS011;21906;50.812;7.132;2023-06-04T09:02:35;2.60;;;2.40;;
4106;SDS011;21906;50.812;7.132;2023-06-04T09:05:03;2.80;;;2.30;;
4106;SDS011;21906;50.812;7.132;2023-06-04T09:07:29;2.23;;;2.03;;
4106;SDS011;21906;50.812;7.132;2023-06-04T09:09:56;5.70;;;1.93;;
4106;SDS011;21906;50.812;7.132;2023-06-04T09:12:24;2.23;;;1.97;;
4106;SDS011;21906;50.812;7.132;2023-06-04T09:14:51;2.00;;;1.90;;
4106;SDS011;21906;50.812;7.132;2023-06-04T09:17:23;2.20;;;2.00;;
4106;SDS011;21906;50.812;7.132;2023-06-04T09:19:51;2.00;;;1.90;;
4106;SDS011;21906;50.812;7.132;2023-06-04T09:22:17;1.92;;;1.83;;
4106;SDS011;21906;50.812;7.132;2023-06-04T09:24:44;2.13;;;2.03;;
4106;SDS011;21906;50.812;7.132;2023-06-04T09:27:18;2.07;;;1.97;;
4106;SDS011;21906;50.812;7.132;2023-06-04T09:29:48;2.20;;;2.10;;
4106;SDS011;21906;50.812;7.132;2023-06-04T09:32:22;1.90;;;1.80;;
4106;SDS011;21906;50.812;7.132;2023-06-04T09:34:48;2.10;;;1.90;;
4106;SDS011;21906;50.812;7.132;2023-06-04T09:37:16;1.93;;;1.73;;
4106;SDS011;21906;50.812;7.132;2023-06-04T09:39:43;1.92;;;1.83;;
4106;SDS011;21906;50.812;7.132;2023-06-04T09:42:09;2.57;;;2.10;;
4106;SDS011;21906;50.812;7.132;2023-06-04T09:44:44;2.10;;;2.00;;
4106;SDS011;21906;50.812;7.132;2023-06-04T09:47:13;2.23;;;2.00;;
4106;SDS011;21906;50.812;7.132;2023-06-04T09:49:42;2.00;;;1.80;;
4106;SDS011;21906;50.812;7.132;2023-06-04T09:52:09;2.77;;;2.20;;
4106;SDS011;21906;50.812;7.132;2023-06-04T09:54:38;2.50;;;2.00;;
4106;SDS011;21906;50.812;7.132;2023-06-04T09:57:15;2.43;;;2.10;;
4106;SDS011;21906;50.812;7.132;2023-06-04T09:59:43;2.07;;;1.93;;
4106;SDS011;21906;50.812;7.132;2023-06-04T10:02:11;2.35;;;2.15;;
4106;SDS011;21906;50.812;7.132;2023-06-04T10:04:39;2.13;;;1.93;;
4106;SDS011;21906;50.812;7.132;2023-06-04T10:07:08;1.93;;;1.80;;
4106;SDS011;21906;50.812;7.132;2023-06-04T10:09:35;2.30;;;2.10;;
4106;SDS011;21906;50.812;7.132;2023-06-04T10:12:10;2.10;;;1.90;;
4106;SDS011;21906;50.812;7.132;2023-06-04T10:14:41;2.70;;;2.10;;
4106;SDS011;21906;50.812;7.132;2023-06-04T10:17:12;2.27;;;2.07;;
4106;SDS011;21906;50.812;7.132;2023-06-04T10:19:42;2.40;;;2.13;;
4106;SDS011;21906;50.812;7.132;2023-06-04T10:22:10;2.70;;;2.10;;
4106;SDS011;21906;50.812;7.132;2023-06-04T10:24:36;2.17;;;1.90;;
4106;SDS011;21906;50.812;7.132;2023-06-04T10:27:03;2.87;;;2.20;;
4106;SDS011;21906;50.812;7.132;2023-06-04T10:29:35;2.60;;;1.90;;
4106;SDS011;21906;50.812;7.132;2023-06-04T10:32:02;3.53;;;2.00;;
4106;SDS011;21906;50.812;7.132;2023-06-04T10:34:28;2.20;;;2.00;;
4106;SDS011;21906;50.812;7.132;2023-06-04T10:36:53;3.27;;;1.93;;
4106;SDS011;21906;50.812;7.132;2023-06-04T10:39:29;2.13;;;2.03;;
4106;SDS011;21906;50.812;7.132;2023-06-04T10:41:59;2.03;;;1.90;;
4106;SDS011;21906;50.812;7.132;2023-06-04T10:44:30;2.37;;;2.17;;
4106;SDS011;21906;50.812;7.132;2023-06-04T10:46:57;2.10;;;1.90;;
4106;SDS011;21906;50.812;7.132;2023-06-04T10:49:26;2.50;;;2.23;;
4106;SDS011;21906;50.812;7.132;2023-06-04T10:51:53;2.10;;;1.90;;
4106;SDS011;21906;50.812;7.132;2023-06-04T10:54:27;2.00;;;1.80;;
4106;SDS011;21906;50.812;7.132;2023-06-04T10:56:54;2.50;;;2.10;;
4106;SDS011;21906;50.812;7.132;2023-06-04T10:59:20;2.43;;;2.23;;
4106;SDS011;21906;50.812;7.132;2023-06-04T11:01:46;2.20;;;2.07;;
4106;SDS011;21906;50.812;7.132;2023-06-04T11:04:19;2.33;;;2.13;;
4106;SDS011;21906;50.812;7.132;2023-06-04T11:06:55;2.67;;;2.03;;
4106;SDS011;21906;50.812;7.132;2023-06-04T11:09:29;2.05;;;1.95;;
4106;SDS011;21906;50.812;7.132;2023-06-04T11:11:58;2.27;;;1.90;;
4106;SDS011;21906;50.812;7.132;2023-06-04T11:14:24;2.00;;;1.90;;
4106;SDS011;21906;50.812;7.132;2023-06-04T11:16:50;3.20;;;2.37;;
4106;SDS011;21906;50.812;7.132;2023-06-04T11:19:15;2.60;;;2.30;;
4106;SDS011;21906;50.812;7.132;2023-06-04T11:21:41;3.10;;;2.20;;
4106;SDS011;21906;50.812;7.132;2023-06-04T11:24:07;3.00;;;2.40;;
4106;SDS011;21906;50.812;7.132;2023-06-04T11:26:36;3.97;;;2.10;;
4106;SDS011;21906;50.812;7.132;2023-06-04T11:29:06;2.00;;;1.90;;
4106;SDS011;21906;50.812;7.132;2023-06-04T11:31:46;2.30;;;2.10;;
4106;SDS011;21906;50.812;7.132;2023-06-04T11:34:28;2.30;;;2.10;;
4106;SDS011;21906;50.812;7.132;2023-06-04T11:36:54;2.50;;;2.30;;
4106;SDS011;21906;50.812;7.132;2023-06-04T11:39:21;2.30;;;2.10;;
4106;SDS011;21906;50.812;7.132;2023-06-04T11:41:48;2.20;;;2.10;;
4106;SDS011;21906;50.812;7.132;2023-06-04T11:44:17;3.30;;;2.20;;
4106;SDS011;21906;50.812;7.132;2023-06-04T11:46:44;3.15;;;2.08;;
4106;SDS011;21906;50.812;7.132;2023-06-04T11:49:16;2.47;;;2.00;;
4106;SDS011;21906;50.812;7.132;2023-06-04T11:51:50;2.40;;;2.30;;
4106;SDS011;21906;50.812;7.132;2023-06-04T11:54:17;2.17;;;2.07;;
4106;SDS011;21906;50.812;7.132;2023-06-04T11:56:44;2.80;;;2.17;;
4106;SDS011;21906;50.812;7.132;2023-06-04T11:59:15;2.50;;;2.40;;
4106;SDS011;21906;50.812;7.132;2023-06-04T12:01:45;2.10;;;2.00;;
4106;SDS011;21906;50.812;7.132;2023-06-04T12:04:16;2.10;;;1.90;;
4106;SDS011;21906;50.812;7.132;2023-06-04T12:06:52;3.20;;;2.00;;
4106;SDS011;21906;50.812;7.132;2023-06-04T12:09:25;2.25;;;2.15;;
4106;SDS011;21906;50.812;7.132;2023-06-04T12:12:00;4.33;;;2.20;;
4106;SDS011;21906;50.812;7.132;2023-06-04T12:14:26;3.20;;;2.07;;
4106;SDS011;21906;50.812;7.132;2023-06-04T12:19:25;2.07;;;1.90;;
4106;SDS011;21906;50.812;7.132;2023-06-04T12:22:06;3.60;;;2.20;;
4106;SDS011;21906;50.812;7.132;2023-06-04T12:24:33;2.15;;;2.05;;
4106;SDS011;21906;50.812;7.132;2023-06-04T12:29:29;2.23;;;2.13;;
4106;SDS011;21906;50.812;7.132;2023-06-04T12:32:05;2.00;;;1.90;;
4106;SDS011;21906;50.812;7.132;2023-06-04T12:34:33;2.33;;;2.10;;
4106;SDS011;21906;50.812;7.132;2023-06-04T12:37:02;3.30;;;2.20;;
4106;SDS011;21906;50.812;7.132;2023-06-04T12:39:32;5.33;;;2.17;;
4106;SDS011;21906;50.812;7.132;2023-06-04T12:41:59;2.50;;;2.23;;
4106;SDS011;21906;50.812;7.132;2023-06-04T12:44:24;2.83;;;2.63;;
4106;SDS011;21906;50.812;7.132;2023-06-04T12:46:50;2.27;;;2.07;;
4106;SDS011;21906;50.812;7.132;2023-06-04T12:49:16;2.33;;;2.20;;
4106;SDS011;21906;50.812;7.132;2023-06-04T12:51:42;2.70;;;2.50;;
4106;SDS011;21906;50.812;7.132;2023-06-04T12:54:07;2.10;;;2.00;;
4106;SDS011;21906;50.812;7.132;2023-06-04T12:56:33;2.20;;;2.03;;
4106;SDS011;21906;50.812;7.132;2023-06-04T12:59:00;2.93;;;2.23;;
4106;SDS011;21906;50.812;7.132;2023-06-04T13:01:25;2.63;;;2.27;;
4106;SDS011;21906;50.812;7.132;2023-06-04T13:03:51;3.10;;;2.30;;
4106;SDS011;21906;50.812;7.132;2023-06-04T13:06:17;2.17;;;2.00;;
4106;SDS011;21906;50.812;7.132;2023-06-04T13:08:42;2.70;;;2.20;;
4106;SDS011;21906;50.812;7.132;2023-06-04T13:11:08;2.63;;;2.42;;
4106;SDS011;21906;50.812;7.132;2023-06-04T13:13:34;2.40;;;2.30;;
4106;SDS011;21906;50.812;7.132;2023-06-04T13:16:02;2.00;;;1.90;;
4106;SDS011;21906;50.812;7.132;2023-06-04T13:18:28;2.60;;;2.00;;
4106;SDS011;21906;50.812;7.132;2023-06-04T13:20:53;2.00;;;1.90;;
4106;SDS011;21906;50.812;7.132;2023-06-04T13:23:19;2.20;;;2.00;;
4106;SDS011;21906;50.812;7.132;2023-06-04T13:25:45;2.63;;;2.42;;
4106;SDS011;21906;50.812;7.132;2023-06-04T13:28:11;2.20;;;2.00;;
4106;SDS011;21906;50.812;7.132;2023-06-04T13:30:37;2.23;;;2.03;;
4106;SDS011;21906;50.812;7.132;2023-06-04T13:33:03;2.20;;;2.00;;
4106;SDS011;21906;50.812;7.132;2023-06-04T13:35:29;3.90;;;2.20;;
4106;SDS011;21906;50.812;7.132;2023-06-04T13:37:55;2.50;;;2.30;;
4106;SDS011;21906;50.812;7.132;2023-06-04T13:40:21;2.40;;;2.20;;
4106;SDS011;21906;50.812;7.132;2023-06-04T13:42:46;2.50;;;2.00;;
4106;SDS011;21906;50.812;7.132;2023-06-04T13:45:12;2.80;;;2.55;;
4106;SDS011;21906;50.812;7.132;2023-06-04T13:47:38;3.03;;;2.40;;
4106;SDS011;21906;50.812;7.132;2023-06-04T13:50:03;5.53;;;2.40;;
4106;SDS011;21906;50.812;7.132;2023-06-04T13:52:30;2.50;;;2.08;;
4106;SDS011;21906;50.812;7.132;2023-06-04T13:54:56;2.50;;;2.30;;
4106;SDS011;21906;50.812;7.132;2023-06-04T13:57:24;2.20;;;2.00;;
4106;SDS011;21906;50.812;7.132;2023-06-04T13:59:49;2.60;;;2.50;;
4106;SDS011;21906;50.812;7.132;2023-06-04T14:02:15;3.50;;;2.40;;
4106;SDS011;21906;50.812;7.132;2023-06-04T14:04:41;2.45;;;2.25;;
4106;SDS011;21906;50.812;7.132;2023-06-04T14:07:06;2.93;;;2.70;;
4106;SDS011;21906;50.812;7.132;2023-06-04T14:09:32;2.50;;;2.27;;
4106;SDS011;21906;50.812;7.132;2023-06-04T14:11:58;2.70;;;2.40;;
4106;SDS011;21906;50.812;7.132;2023-06-04T14:14:23;3.10;;;2.40;;
4106;SDS011;21906;50.812;7.132;2023-06-04T14:16:49;2.63;;;2.43;;
4106;SDS011;21906;50.812;7.132;2023-06-04T14:19:15;2.55;;;2.35;;
4106;SDS011;21906;50.812;7.132;2023-06-04T14:21:41;2.40;;;2.30;;
4106;SDS011;21906;50.812;7.132;2023-06-04T14:24:08;2.40;;;2.30;;
4106;SDS011;21906;50.812;7.132;2023-06-04T14:26:34;2.70;;;2.50;;
4106;SDS011;21906;50.812;7.132;2023-06-04T14:29:00;2.30;;;2.20;;
4106;SDS011;21906;50.812;7.132;2023-06-04T14:31:27;2.70;;;2.50;;
4106;SDS011;21906;50.812;7.132;2023-06-04T14:33:52;2.53;;;2.33;;
4106;SDS011;21906;50.812;7.132;2023-06-04T14:36:18;2.53;;;2.33;;
4106;SDS011;21906;50.812;7.132;2023-06-04T14:38:44;2.60;;;2.40;;
4106;SDS011;21906;50.812;7.132;2023-06-04T14:41:10;4.03;;;2.67;;
4106;SDS011;21906;50.812;7.132;2023-06-04T14:43:36;2.97;;;2.73;;
4106;SDS011;21906;50.812;7.132;2023-06-04T14:46:02;3.17;;;2.33;;
4106;SDS011;21906;50.812;7.132;2023-06-04T14:48:28;3.13;;;2.93;;
4106;SDS011;21906;50.812;7.132;2023-06-04T14:50:53;2.50;;;2.40;;
4106;SDS011;21906;50.812;7.132;2023-06-04T14:53:20;2.88;;;2.67;;
4106;SDS011;21906;50.812;7.132;2023-06-04T14:55:46;2.40;;;2.20;;
4106;SDS011;21906;50.812;7.132;2023-06-04T14:58:12;2.47;;;2.30;;
4106;SDS011;21906;50.812;7.132;2023-06-04T15:00:38;2.60;;;2.30;;
4106;SDS011;21906;50.812;7.132;2023-06-04T15:03:04;2.60;;;2.50;;
4106;SDS011;21906;50.812;7.132;2023-06-04T15:05:31;2.40;;;2.20;;
4106;SDS011;21906;50.812;7.132;2023-06-04T15:07:57;2.33;;;2.23;;
4106;SDS011;21906;50.812;7.132;2023-06-04T15:10:24;2.30;;;2.20;;
4106;SDS011;21906;50.812;7.132;2023-06-04T15:12:50;3.00;;;2.80;;
4106;SDS011;21906;50.812;7.132;2023-06-04T15:15:17;2.70;;;2.60;;
4106;SDS011;21906;50.812;7.132;2023-06-04T15:17:42;2.73;;;2.63;;